sensor_id;sensor_type;location;lat;lon;timestamp;P1;durP1;ratioP1;P2;durP2;ratioP2
54265;SDS011;40836;39.770;2.714;2022-09-27T00:00:28;7.45;;;3.42;;
54265;SDS011;40836;39.770;2.714;2022-09-27T00:02:54;8.02;;;2.80;;
54265;SDS011;40836;39.770;2.714;2022-09-27T00:05:19;7.70;;;3.42;;
54265;SDS011;40836;39.770;2.714;2022-09-27T00:07:45;6.30;;;3.13;;
54265;SDS011;40836;39.770;2.714;2022-09-27T00:10:11;5.43;;;2.85;;
54265;SDS011;40836;39.770;2.714;2022-09-27T00:12:37;6.78;;;3.22;;
54265;SDS011;40836;39.770;2.714;2022-09-27T00:15:03;6.32;;;2.97;;
54265;SDS011;40836;39.770;2.714;2022-09-27T00:17:30;5.05;;;3.03;;
54265;SDS011;40836;39.770;2.714;2022-09-27T00:19:57;6.90;;;3.08;;
54265;SDS011;40836;39.770;2.714;2022-09-27T00:22:23;6.70;;;2.80;;
54265;SDS011;40836;39.770;2.714;2022-09-27T00:24:50;6.20;;;2.92;;
54265;SDS011;40836;39.770;2.714;2022-09-27T00:27:15;6.30;;;2.97;;
54265;SDS011;40836;39.770;2.714;2022-09-27T00:29:42;7.30;;;2.90;;
54265;SDS011;40836;39.770;2.714;2022-09-27T00:32:08;7.30;;;2.75;;
54265;SDS011;40836;39.770;2.714;2022-09-27T00:34:33;7.00;;;2.80;;
54265;SDS011;40836;39.770;2.714;2022-09-27T00:36:59;3.78;;;2.80;;
54265;SDS011;40836;39.770;2.714;2022-09-27T00:39:24;4.20;;;2.35;;
54265;SDS011;40836;39.770;2.714;2022-09-27T00:41:50;7.75;;;2.83;;
54265;SDS011;40836;39.770;2.714;2022-09-27T00:47:00;10.65;;;2.75;;
54265;SDS011;40836;39.770;2.714;2022-09-27T00:55:06;6.05;;;2.70;;
54265;SDS011;40836;39.770;2.714;2022-09-27T00:57:40;4.72;;;2.40;;
54265;SDS011;40836;39.770;2.714;2022-09-27T01:00:09;5.60;;;2.60;;
54265;SDS011;40836;39.770;2.714;2022-09-27T01:02:36;4.80;;;2.38;;
54265;SDS011;40836;39.770;2.714;2022-09-27T01:05:04;4.72;;;2.20;;
54265;SDS011;40836;39.770;2.714;2022-09-27T01:07:31;4.38;;;1.98;;
54265;SDS011;40836;39.770;2.714;2022-09-27T01:09:56;5.18;;;2.17;;
54265;SDS011;40836;39.770;2.714;2022-09-27T01:17:58;3.15;;;1.67;;
54265;SDS011;40836;39.770;2.714;2022-09-27T01:45:35;4.93;;;1.70;;
54265;SDS011;40836;39.770;2.714;2022-09-27T01:48:15;3.67;;;1.88;;
54265;SDS011;40836;39.770;2.714;2022-09-27T01:50:56;5.72;;;1.92;;
54265;SDS011;40836;39.770;2.714;2022-09-27T01:56:19;9.82;;;2.30;;
54265;SDS011;40836;39.770;2.714;2022-09-27T01:58:55;6.35;;;1.95;;
54265;SDS011;40836;39.770;2.714;2022-09-27T02:01:26;6.07;;;1.80;;
54265;SDS011;40836;39.770;2.714;2022-09-27T02:03:54;6.70;;;1.95;;
54265;SDS011;40836;39.770;2.714;2022-09-27T02:06:30;4.47;;;2.08;;
54265;SDS011;40836;39.770;2.714;2022-09-27T02:09:08;3.38;;;1.73;;
54265;SDS011;40836;39.770;2.714;2022-09-27T02:11:47;4.75;;;1.98;;
54265;SDS011;40836;39.770;2.714;2022-09-27T02:22:16;4.70;;;1.52;;
54265;SDS011;40836;39.770;2.714;2022-09-27T02:25:04;3.17;;;1.50;;
54265;SDS011;40836;39.770;2.714;2022-09-27T02:30:13;3.50;;;1.73;;
54265;SDS011;40836;39.770;2.714;2022-09-27T02:32:40;5.70;;;1.80;;
54265;SDS011;40836;39.770;2.714;2022-09-27T02:35:28;4.53;;;1.80;;
54265;SDS011;40836;39.770;2.714;2022-09-27T02:37:58;7.28;;;2.03;;
54265;SDS011;40836;39.770;2.714;2022-09-27T02:40:28;3.60;;;1.50;;
54265;SDS011;40836;39.770;2.714;2022-09-27T02:42:56;3.25;;;1.40;;
54265;SDS011;40836;39.770;2.714;2022-09-27T02:45:23;5.65;;;1.70;;
54265;SDS011;40836;39.770;2.714;2022-09-27T02:48:08;4.20;;;1.65;;
54265;SDS011;40836;39.770;2.714;2022-09-27T02:51:17;4.07;;;1.67;;
54265;SDS011;40836;39.770;2.714;2022-09-27T02:59:15;6.10;;;1.52;;
54265;SDS011;40836;39.770;2.714;2022-09-27T03:04:52;7.63;;;1.60;;
54265;SDS011;40836;39.770;2.714;2022-09-27T03:07:22;8.60;;;1.50;;
54265;SDS011;40836;39.770;2.714;2022-09-27T03:09:49;2.42;;;1.30;;
54265;SDS011;40836;39.770;2.714;2022-09-27T03:12:17;2.58;;;1.50;;
54265;SDS011;40836;39.770;2.714;2022-09-27T03:14:47;3.53;;;1.40;;
54265;SDS011;40836;39.770;2.714;2022-09-27T03:17:13;22.02;;;2.47;;
54265;SDS011;40836;39.770;2.714;2022-09-27T03:19:39;6.70;;;1.40;;
54265;SDS011;40836;39.770;2.714;2022-09-27T03:22:04;9.00;;;1.88;;
54265;SDS011;40836;39.770;2.714;2022-09-27T03:24:30;5.47;;;1.30;;
54265;SDS011;40836;39.770;2.714;2022-09-27T03:26:55;8.13;;;1.45;;
54265;SDS011;40836;39.770;2.714;2022-09-27T03:29:21;5.20;;;1.40;;
54265;SDS011;40836;39.770;2.714;2022-09-27T03:31:47;3.20;;;1.55;;
54265;SDS011;40836;39.770;2.714;2022-09-27T03:34:12;5.88;;;1.35;;
54265;SDS011;40836;39.770;2.714;2022-09-27T03:36:38;5.38;;;1.45;;
54265;SDS011;40836;39.770;2.714;2022-09-27T03:39:03;3.22;;;1.10;;
54265;SDS011;40836;39.770;2.714;2022-09-27T03:41:28;6.05;;;1.60;;
54265;SDS011;40836;39.770;2.714;2022-09-27T03:43:54;4.50;;;1.52;;
54265;SDS011;40836;39.770;2.714;2022-09-27T03:46:24;4.97;;;1.33;;
54265;SDS011;40836;39.770;2.714;2022-09-27T03:48:50;3.35;;;1.30;;
54265;SDS011;40836;39.770;2.714;2022-09-27T03:51:15;5.65;;;1.33;;
54265;SDS011;40836;39.770;2.714;2022-09-27T03:53:41;7.15;;;1.20;;
54265;SDS011;40836;39.770;2.714;2022-09-27T03:56:07;3.92;;;1.30;;
54265;SDS011;40836;39.770;2.714;2022-09-27T03:58:32;4.97;;;1.40;;
54265;SDS011;40836;39.770;2.714;2022-09-27T04:00:58;4.72;;;1.40;;
54265;SDS011;40836;39.770;2.714;2022-09-27T04:03:23;5.28;;;1.50;;
54265;SDS011;40836;39.770;2.714;2022-09-27T04:05:51;4.25;;;1.67;;
54265;SDS011;40836;39.770;2.714;2022-09-27T04:08:17;6.82;;;1.30;;
54265;SDS011;40836;39.770;2.714;2022-09-27T04:10:43;3.65;;;1.30;;
54265;SDS011;40836;39.770;2.714;2022-09-27T04:13:09;3.63;;;1.40;;
54265;SDS011;40836;39.770;2.714;2022-09-27T04:15:34;4.53;;;1.45;;
54265;SDS011;40836;39.770;2.714;2022-09-27T04:18:00;5.95;;;1.52;;
54265;SDS011;40836;39.770;2.714;2022-09-27T04:20:25;3.13;;;1.20;;
54265;SDS011;40836;39.770;2.714;2022-09-27T04:22:51;8.40;;;1.70;;
54265;SDS011;40836;39.770;2.714;2022-09-27T04:25:16;15.73;;;2.10;;
54265;SDS011;40836;39.770;2.714;2022-09-27T04:27:45;4.82;;;1.27;;
54265;SDS011;40836;39.770;2.714;2022-09-27T04:30:11;7.45;;;2.47;;
54265;SDS011;40836;39.770;2.714;2022-09-27T04:32:41;3.15;;;1.58;;
54265;SDS011;40836;39.770;2.714;2022-09-27T04:35:09;4.10;;;1.55;;
54265;SDS011;40836;39.770;2.714;2022-09-27T04:40:19;3.67;;;1.50;;
54265;SDS011;40836;39.770;2.714;2022-09-27T04:42:47;3.67;;;1.50;;
54265;SDS011;40836;39.770;2.714;2022-09-27T04:45:13;2.78;;;1.38;;
54265;SDS011;40836;39.770;2.714;2022-09-27T04:47:45;5.32;;;1.20;;
54265;SDS011;40836;39.770;2.714;2022-09-27T04:50:11;3.90;;;1.27;;
54265;SDS011;40836;39.770;2.714;2022-09-27T04:52:38;5.05;;;1.50;;
54265;SDS011;40836;39.770;2.714;2022-09-27T04:55:04;5.60;;;1.48;;
54265;SDS011;40836;39.770;2.714;2022-09-27T04:57:31;4.25;;;1.20;;
54265;SDS011;40836;39.770;2.714;2022-09-27T04:59:56;4.80;;;1.52;;
54265;SDS011;40836;39.770;2.714;2022-09-27T05:02:24;6.30;;;3.08;;
54265;SDS011;40836;39.770;2.714;2022-09-27T05:04:51;4.88;;;1.70;;
54265;SDS011;40836;39.770;2.714;2022-09-27T05:07:17;4.43;;;1.88;;
54265;SDS011;40836;39.770;2.714;2022-09-27T05:09:42;5.13;;;1.80;;
54265;SDS011;40836;39.770;2.714;2022-09-27T05:12:09;13.85;;;9.50;;
54265;SDS011;40836;39.770;2.714;2022-09-27T05:14:35;16.38;;;9.38;;
54265;SDS011;40836;39.770;2.714;2022-09-27T05:17:01;7.95;;;2.80;;
54265;SDS011;40836;39.770;2.714;2022-09-27T05:19:27;6.10;;;3.42;;
54265;SDS011;40836;39.770;2.714;2022-09-27T05:21:52;7.80;;;2.10;;
54265;SDS011;40836;39.770;2.714;2022-09-27T05:24:17;9.00;;;4.78;;
54265;SDS011;40836;39.770;2.714;2022-09-27T05:26:43;7.28;;;3.45;;
54265;SDS011;40836;39.770;2.714;2022-09-27T05:29:11;6.18;;;2.63;;
54265;SDS011;40836;39.770;2.714;2022-09-27T05:31:36;6.95;;;1.88;;
54265;SDS011;40836;39.770;2.714;2022-09-27T05:34:01;6.00;;;2.30;;
54265;SDS011;40836;39.770;2.714;2022-09-27T05:36:27;6.50;;;3.08;;
54265;SDS011;40836;39.770;2.714;2022-09-27T05:38:52;6.45;;;3.22;;
54265;SDS011;40836;39.770;2.714;2022-09-27T05:41:18;6.47;;;2.67;;
54265;SDS011;40836;39.770;2.714;2022-09-27T05:43:44;7.32;;;2.83;;
54265;SDS011;40836;39.770;2.714;2022-09-27T05:46:11;7.93;;;2.45;;
54265;SDS011;40836;39.770;2.714;2022-09-27T05:48:36;7.60;;;1.73;;
54265;SDS011;40836;39.770;2.714;2022-09-27T05:51:02;4.15;;;2.10;;
54265;SDS011;40836;39.770;2.714;2022-09-27T05:53:28;6.57;;;2.00;;
54265;SDS011;40836;39.770;2.714;2022-09-27T05:55:54;5.30;;;2.97;;
54265;SDS011;40836;39.770;2.714;2022-09-27T05:58:19;5.47;;;2.20;;
54265;SDS011;40836;39.770;2.714;2022-09-27T06:00:45;5.10;;;1.92;;
54265;SDS011;40836;39.770;2.714;2022-09-27T06:03:11;4.35;;;2.10;;
54265;SDS011;40836;39.770;2.714;2022-09-27T06:05:38;7.53;;;1.95;;
54265;SDS011;40836;39.770;2.714;2022-09-27T06:08:06;7.85;;;3.00;;
54265;SDS011;40836;39.770;2.714;2022-09-27T06:10:33;5.45;;;1.90;;
54265;SDS011;40836;39.770;2.714;2022-09-27T06:13:06;6.47;;;1.85;;
54265;SDS011;40836;39.770;2.714;2022-09-27T06:15:35;5.60;;;2.25;;
54265;SDS011;40836;39.770;2.714;2022-09-27T06:18:07;4.25;;;1.90;;
54265;SDS011;40836;39.770;2.714;2022-09-27T06:20:37;4.70;;;2.25;;
54265;SDS011;40836;39.770;2.714;2022-09-27T06:23:09;6.03;;;1.92;;
54265;SDS011;40836;39.770;2.714;2022-09-27T06:25:40;8.13;;;2.95;;
54265;SDS011;40836;39.770;2.714;2022-09-27T06:28:06;9.73;;;2.05;;
54265;SDS011;40836;39.770;2.714;2022-09-27T06:30:32;5.93;;;1.50;;
54265;SDS011;40836;39.770;2.714;2022-09-27T06:32:58;8.25;;;2.50;;
54265;SDS011;40836;39.770;2.714;2022-09-27T06:35:25;14.02;;;2.30;;
54265;SDS011;40836;39.770;2.714;2022-09-27T06:37:52;4.70;;;1.95;;
54265;SDS011;40836;39.770;2.714;2022-09-27T06:40:18;5.88;;;2.00;;
54265;SDS011;40836;39.770;2.714;2022-09-27T06:42:44;4.18;;;1.60;;
54265;SDS011;40836;39.770;2.714;2022-09-27T06:45:10;4.60;;;2.10;;
54265;SDS011;40836;39.770;2.714;2022-09-27T06:47:36;5.68;;;1.67;;
54265;SDS011;40836;39.770;2.714;2022-09-27T06:50:03;4.32;;;1.42;;
54265;SDS011;40836;39.770;2.714;2022-09-27T06:52:31;7.60;;;1.60;;
54265;SDS011;40836;39.770;2.714;2022-09-27T06:54:57;5.82;;;1.63;;
54265;SDS011;40836;39.770;2.714;2022-09-27T06:57:22;6.57;;;1.50;;
54265;SDS011;40836;39.770;2.714;2022-09-27T07:00:06;4.47;;;1.42;;
54265;SDS011;40836;39.770;2.714;2022-09-27T07:02:51;3.45;;;1.40;;
54265;SDS011;40836;39.770;2.714;2022-09-27T07:05:17;3.22;;;1.30;;
54265;SDS011;40836;39.770;2.714;2022-09-27T07:07:44;3.92;;;1.02;;
54265;SDS011;40836;39.770;2.714;2022-09-27T07:10:11;3.33;;;0.93;;
54265;SDS011;40836;39.770;2.714;2022-09-27T07:12:37;11.15;;;1.17;;
54265;SDS011;40836;39.770;2.714;2022-09-27T07:15:03;3.88;;;1.10;;
54265;SDS011;40836;39.770;2.714;2022-09-27T07:17:29;5.40;;;1.20;;
54265;SDS011;40836;39.770;2.714;2022-09-27T07:19:55;3.35;;;1.10;;
54265;SDS011;40836;39.770;2.714;2022-09-27T07:22:20;5.75;;;1.13;;
54265;SDS011;40836;39.770;2.714;2022-09-27T07:24:46;5.47;;;1.20;;
54265;SDS011;40836;39.770;2.714;2022-09-27T07:27:12;2.40;;;1.20;;
54265;SDS011;40836;39.770;2.714;2022-09-27T07:29:39;3.67;;;1.17;;
54265;SDS011;40836;39.770;2.714;2022-09-27T07:32:05;2.78;;;1.00;;
54265;SDS011;40836;39.770;2.714;2022-09-27T07:34:32;5.30;;;1.00;;
54265;SDS011;40836;39.770;2.714;2022-09-27T07:36:58;5.57;;;1.40;;
54265;SDS011;40836;39.770;2.714;2022-09-27T07:39:24;5.03;;;1.35;;
54265;SDS011;40836;39.770;2.714;2022-09-27T07:41:50;5.28;;;1.40;;
54265;SDS011;40836;39.770;2.714;2022-09-27T07:44:16;5.00;;;1.40;;
54265;SDS011;40836;39.770;2.714;2022-09-27T07:46:42;8.02;;;1.40;;
54265;SDS011;40836;39.770;2.714;2022-09-27T07:49:07;4.60;;;1.20;;
54265;SDS011;40836;39.770;2.714;2022-09-27T07:51:33;3.50;;;1.10;;
54265;SDS011;40836;39.770;2.714;2022-09-27T07:53:58;3.72;;;1.20;;
54265;SDS011;40836;39.770;2.714;2022-09-27T07:56:25;3.22;;;1.10;;
54265;SDS011;40836;39.770;2.714;2022-09-27T07:58:51;4.55;;;1.17;;
54265;SDS011;40836;39.770;2.714;2022-09-27T08:01:17;5.32;;;1.20;;
54265;SDS011;40836;39.770;2.714;2022-09-27T08:03:43;4.97;;;1.38;;
54265;SDS011;40836;39.770;2.714;2022-09-27T08:06:08;2.10;;;1.00;;
54265;SDS011;40836;39.770;2.714;2022-09-27T08:08:34;2.55;;;1.00;;
54265;SDS011;40836;39.770;2.714;2022-09-27T08:11:01;2.97;;;1.20;;
54265;SDS011;40836;39.770;2.714;2022-09-27T08:13:36;6.07;;;1.27;;
54265;SDS011;40836;39.770;2.714;2022-09-27T08:16:03;3.20;;;1.30;;
54265;SDS011;40836;39.770;2.714;2022-09-27T08:18:28;11.82;;;1.17;;
54265;SDS011;40836;39.770;2.714;2022-09-27T08:20:57;3.88;;;1.17;;
54265;SDS011;40836;39.770;2.714;2022-09-27T08:23:23;2.60;;;0.98;;
54265;SDS011;40836;39.770;2.714;2022-09-27T08:25:52;3.95;;;1.17;;
54265;SDS011;40836;39.770;2.714;2022-09-27T08:28:18;1.48;;;1.00;;
54265;SDS011;40836;39.770;2.714;2022-09-27T08:30:46;4.00;;;1.00;;
54265;SDS011;40836;39.770;2.714;2022-09-27T08:33:15;3.10;;;1.17;;
54265;SDS011;40836;39.770;2.714;2022-09-27T08:35:40;2.42;;;0.90;;
54265;SDS011;40836;39.770;2.714;2022-09-27T08:38:06;1.90;;;0.80;;
54265;SDS011;40836;39.770;2.714;2022-09-27T08:49:04;2.28;;;0.80;;
54265;SDS011;40836;39.770;2.714;2022-09-27T08:51:36;2.75;;;1.00;;
54265;SDS011;40836;39.770;2.714;2022-09-27T08:54:05;1.83;;;1.00;;
54265;SDS011;40836;39.770;2.714;2022-09-27T08:56:38;3.38;;;0.90;;
54265;SDS011;40836;39.770;2.714;2022-09-27T08:59:16;4.65;;;0.95;;
54265;SDS011;40836;39.770;2.714;2022-09-27T09:01:47;3.47;;;1.00;;
54265;SDS011;40836;39.770;2.714;2022-09-27T09:04:15;2.67;;;0.90;;
54265;SDS011;40836;39.770;2.714;2022-09-27T09:09:55;3.35;;;1.15;;
54265;SDS011;40836;39.770;2.714;2022-09-27T09:21:29;4.97;;;1.17;;
54265;SDS011;40836;39.770;2.714;2022-09-27T09:24:17;5.18;;;1.10;;
54265;SDS011;40836;39.770;2.714;2022-09-27T09:27:10;2.80;;;0.90;;
54265;SDS011;40836;39.770;2.714;2022-09-27T09:29:59;5.05;;;1.08;;
54265;SDS011;40836;39.770;2.714;2022-09-27T09:35:42;2.85;;;0.95;;
54265;SDS011;40836;39.770;2.714;2022-09-27T09:41:02;6.10;;;1.20;;
54265;SDS011;40836;39.770;2.714;2022-09-27T09:43:54;3.95;;;1.00;;
54265;SDS011;40836;39.770;2.714;2022-09-27T09:51:54;4.38;;;0.85;;
54265;SDS011;40836;39.770;2.714;2022-09-27T09:59:39;5.17;;;0.80;;
54265;SDS011;40836;39.770;2.714;2022-09-27T10:02:30;3.35;;;1.08;;
54265;SDS011;40836;39.770;2.714;2022-09-27T10:04:58;3.67;;;0.90;;
54265;SDS011;40836;39.770;2.714;2022-09-27T10:07:24;5.18;;;1.00;;
54265;SDS011;40836;39.770;2.714;2022-09-27T10:09:52;3.92;;;0.82;;
54265;SDS011;40836;39.770;2.714;2022-09-27T10:12:20;3.55;;;1.10;;
54265;SDS011;40836;39.770;2.714;2022-09-27T10:14:46;5.10;;;1.15;;
54265;SDS011;40836;39.770;2.714;2022-09-27T10:17:14;7.30;;;1.48;;
54265;SDS011;40836;39.770;2.714;2022-09-27T10:19:42;18.65;;;5.57;;
54265;SDS011;40836;39.770;2.714;2022-09-27T10:24:56;9.00;;;2.50;;
54265;SDS011;40836;39.770;2.714;2022-09-27T10:27:37;13.85;;;3.40;;
54265;SDS011;40836;39.770;2.714;2022-09-27T10:30:12;24.92;;;8.07;;
54265;SDS011;40836;39.770;2.714;2022-09-27T10:33:03;18.05;;;5.45;;
54265;SDS011;40836;39.770;2.714;2022-09-27T10:35:39;20.33;;;5.93;;
54265;SDS011;40836;39.770;2.714;2022-09-27T10:38:21;33.50;;;10.98;;
54265;SDS011;40836;39.770;2.714;2022-09-27T10:40:52;51.65;;;17.38;;
54265;SDS011;40836;39.770;2.714;2022-09-27T10:51:43;16.58;;;5.45;;
54265;SDS011;40836;39.770;2.714;2022-09-27T10:54:17;17.02;;;4.85;;
54265;SDS011;40836;39.770;2.714;2022-09-27T10:57:02;12.02;;;3.80;;
54265;SDS011;40836;39.770;2.714;2022-09-27T10:59:43;17.55;;;5.15;;
54265;SDS011;40836;39.770;2.714;2022-09-27T11:05:13;17.10;;;5.43;;
54265;SDS011;40836;39.770;2.714;2022-09-27T11:07:56;13.15;;;3.58;;
54265;SDS011;40836;39.770;2.714;2022-09-27T11:10:25;15.13;;;3.42;;
54265;SDS011;40836;39.770;2.714;2022-09-27T11:30:16;6.43;;;1.88;;
54265;SDS011;40836;39.770;2.714;2022-09-27T11:32:58;6.35;;;1.40;;
54265;SDS011;40836;39.770;2.714;2022-09-27T11:39:04;6.45;;;1.55;;
54265;SDS011;40836;39.770;2.714;2022-09-27T11:41:48;6.25;;;1.52;;
54265;SDS011;40836;39.770;2.714;2022-09-27T11:55:58;7.90;;;1.23;;
54265;SDS011;40836;39.770;2.714;2022-09-27T12:01:26;3.97;;;1.15;;
54265;SDS011;40836;39.770;2.714;2022-09-27T12:09:51;7.28;;;1.27;;
54265;SDS011;40836;39.770;2.714;2022-09-27T12:12:20;5.63;;;1.10;;
54265;SDS011;40836;39.770;2.714;2022-09-27T12:14:51;3.85;;;1.08;;
54265;SDS011;40836;39.770;2.714;2022-09-27T12:17:26;5.10;;;1.20;;
54265;SDS011;40836;39.770;2.714;2022-09-27T12:19:59;7.03;;;1.20;;
54265;SDS011;40836;39.770;2.714;2022-09-27T12:22:34;10.15;;;1.45;;
54265;SDS011;40836;39.770;2.714;2022-09-27T12:25:10;4.68;;;1.05;;
54265;SDS011;40836;39.770;2.714;2022-09-27T12:27:51;4.97;;;1.10;;
54265;SDS011;40836;39.770;2.714;2022-09-27T12:30:22;4.90;;;1.10;;
54265;SDS011;40836;39.770;2.714;2022-09-27T12:35:28;3.25;;;1.02;;
54265;SDS011;40836;39.770;2.714;2022-09-27T12:40:32;6.00;;;1.02;;
54265;SDS011;40836;39.770;2.714;2022-09-27T12:45:38;5.93;;;1.30;;
54265;SDS011;40836;39.770;2.714;2022-09-27T12:51:19;5.90;;;1.00;;
54265;SDS011;40836;39.770;2.714;2022-09-27T12:53:57;6.43;;;1.08;;
54265;SDS011;40836;39.770;2.714;2022-09-27T13:02:45;3.30;;;1.00;;
54265;SDS011;40836;39.770;2.714;2022-09-27T13:05:25;7.50;;;1.70;;
54265;SDS011;40836;39.770;2.714;2022-09-27T13:08:17;5.45;;;1.15;;
54265;SDS011;40836;39.770;2.714;2022-09-27T13:13:47;6.88;;;1.08;;
54265;SDS011;40836;39.770;2.714;2022-09-27T13:16:14;4.00;;;1.00;;
54265;SDS011;40836;39.770;2.714;2022-09-27T13:18:53;7.55;;;1.08;;
54265;SDS011;40836;39.770;2.714;2022-09-27T13:29:52;2.78;;;0.88;;
54265;SDS011;40836;39.770;2.714;2022-09-27T13:35:09;6.60;;;1.00;;
54265;SDS011;40836;39.770;2.714;2022-09-27T13:45:41;4.32;;;0.70;;
54265;SDS011;40836;39.770;2.714;2022-09-27T13:48:16;7.43;;;1.33;;
54265;SDS011;40836;39.770;2.714;2022-09-27T13:51:00;10.52;;;1.77;;
54265;SDS011;40836;39.770;2.714;2022-09-27T13:53:35;4.85;;;1.40;;
54265;SDS011;40836;39.770;2.714;2022-09-27T13:56:03;7.28;;;1.40;;
54265;SDS011;40836;39.770;2.714;2022-09-27T14:01:29;6.20;;;1.48;;
54265;SDS011;40836;39.770;2.714;2022-09-27T14:04:05;9.68;;;2.70;;
54265;SDS011;40836;39.770;2.714;2022-09-27T14:06:35;4.90;;;1.40;;
54265;SDS011;40836;39.770;2.714;2022-09-27T14:09:12;8.15;;;1.40;;
54265;SDS011;40836;39.770;2.714;2022-09-27T14:11:43;9.45;;;1.50;;
54265;SDS011;40836;39.770;2.714;2022-09-27T14:14:17;9.48;;;3.05;;
54265;SDS011;40836;39.770;2.714;2022-09-27T14:16:46;6.90;;;1.33;;
54265;SDS011;40836;39.770;2.714;2022-09-27T14:19:13;4.55;;;1.55;;
54265;SDS011;40836;39.770;2.714;2022-09-27T14:21:45;3.60;;;1.13;;
54265;SDS011;40836;39.770;2.714;2022-09-27T14:24:21;6.38;;;1.50;;
54265;SDS011;40836;39.770;2.714;2022-09-27T14:26:46;10.80;;;1.85;;
54265;SDS011;40836;39.770;2.714;2022-09-27T14:29:17;7.63;;;1.33;;
54265;SDS011;40836;39.770;2.714;2022-09-27T14:31:45;5.07;;;1.23;;
54265;SDS011;40836;39.770;2.714;2022-09-27T14:34:13;7.15;;;1.45;;
54265;SDS011;40836;39.770;2.714;2022-09-27T14:36:38;4.78;;;1.30;;
54265;SDS011;40836;39.770;2.714;2022-09-27T14:39:32;6.50;;;1.38;;
54265;SDS011;40836;39.770;2.714;2022-09-27T14:42:02;6.32;;;1.10;;
54265;SDS011;40836;39.770;2.714;2022-09-27T14:44:42;5.05;;;1.13;;
54265;SDS011;40836;39.770;2.714;2022-09-27T14:49:34;4.43;;;1.20;;
54265;SDS011;40836;39.770;2.714;2022-09-27T14:51:59;5.93;;;1.30;;
54265;SDS011;40836;39.770;2.714;2022-09-27T14:54:27;4.55;;;1.30;;
54265;SDS011;40836;39.770;2.714;2022-09-27T14:56:54;5.93;;;1.27;;
54265;SDS011;40836;39.770;2.714;2022-09-27T15:01:59;7.07;;;1.25;;
54265;SDS011;40836;39.770;2.714;2022-09-27T15:04:27;6.78;;;1.30;;
54265;SDS011;40836;39.770;2.714;2022-09-27T15:06:59;5.95;;;1.20;;
54265;SDS011;40836;39.770;2.714;2022-09-27T15:09:25;5.78;;;1.50;;
54265;SDS011;40836;39.770;2.714;2022-09-27T15:11:52;7.32;;;1.20;;
54265;SDS011;40836;39.770;2.714;2022-09-27T15:14:21;5.47;;;1.20;;
54265;SDS011;40836;39.770;2.714;2022-09-27T15:16:49;4.93;;;1.05;;
54265;SDS011;40836;39.770;2.714;2022-09-27T15:21:47;5.05;;;1.20;;
54265;SDS011;40836;39.770;2.714;2022-09-27T15:27:01;6.28;;;1.20;;
54265;SDS011;40836;39.770;2.714;2022-09-27T15:29:27;7.72;;;1.20;;
54265;SDS011;40836;39.770;2.714;2022-09-27T15:31:59;7.20;;;1.60;;
54265;SDS011;40836;39.770;2.714;2022-09-27T15:34:28;9.57;;;1.30;;
54265;SDS011;40836;39.770;2.714;2022-09-27T15:36:57;6.03;;;1.23;;
54265;SDS011;40836;39.770;2.714;2022-09-27T15:39:42;8.73;;;1.35;;
54265;SDS011;40836;39.770;2.714;2022-09-27T15:42:10;6.35;;;1.17;;
54265;SDS011;40836;39.770;2.714;2022-09-27T15:49:59;8.05;;;1.17;;
54265;SDS011;40836;39.770;2.714;2022-09-27T15:52:50;5.65;;;1.23;;
54265;SDS011;40836;39.770;2.714;2022-09-27T15:55:20;6.85;;;1.00;;
54265;SDS011;40836;39.770;2.714;2022-09-27T15:58:04;4.82;;;1.10;;
54265;SDS011;40836;39.770;2.714;2022-09-27T16:00:32;4.15;;;1.10;;
54265;SDS011;40836;39.770;2.714;2022-09-27T16:03:02;5.13;;;1.10;;
54265;SDS011;40836;39.770;2.714;2022-09-27T16:05:28;4.72;;;1.10;;
54265;SDS011;40836;39.770;2.714;2022-09-27T16:07:54;7.18;;;1.20;;
54265;SDS011;40836;39.770;2.714;2022-09-27T16:10:25;4.85;;;0.88;;
54265;SDS011;40836;39.770;2.714;2022-09-27T16:12:54;4.40;;;1.30;;
54265;SDS011;40836;39.770;2.714;2022-09-27T16:15:19;6.00;;;1.10;;
54265;SDS011;40836;39.770;2.714;2022-09-27T16:17:45;2.42;;;0.95;;
54265;SDS011;40836;39.770;2.714;2022-09-27T16:22:42;5.28;;;1.10;;
54265;SDS011;40836;39.770;2.714;2022-09-27T16:25:08;6.53;;;1.40;;
54265;SDS011;40836;39.770;2.714;2022-09-27T16:27:33;5.82;;;1.38;;
54265;SDS011;40836;39.770;2.714;2022-09-27T16:29:59;2.80;;;1.05;;
54265;SDS011;40836;39.770;2.714;2022-09-27T16:32:25;5.97;;;1.02;;
54265;SDS011;40836;39.770;2.714;2022-09-27T16:34:51;3.72;;;0.95;;
54265;SDS011;40836;39.770;2.714;2022-09-27T16:37:16;4.97;;;0.80;;
54265;SDS011;40836;39.770;2.714;2022-09-27T16:39:41;7.28;;;1.40;;
54265;SDS011;40836;39.770;2.714;2022-09-27T16:42:07;4.55;;;1.30;;
54265;SDS011;40836;39.770;2.714;2022-09-27T16:44:33;7.13;;;1.20;;
54265;SDS011;40836;39.770;2.714;2022-09-27T16:47:00;8.95;;;1.30;;
54265;SDS011;40836;39.770;2.714;2022-09-27T16:49:29;5.75;;;1.05;;
54265;SDS011;40836;39.770;2.714;2022-09-27T16:52:13;5.95;;;1.10;;
54265;SDS011;40836;39.770;2.714;2022-09-27T16:54:40;8.88;;;1.00;;
54265;SDS011;40836;39.770;2.714;2022-09-27T16:57:06;7.30;;;1.40;;
54265;SDS011;40836;39.770;2.714;2022-09-27T16:59:32;5.50;;;1.40;;
54265;SDS011;40836;39.770;2.714;2022-09-27T17:01:58;6.90;;;1.17;;
54265;SDS011;40836;39.770;2.714;2022-09-27T17:04:24;6.18;;;1.00;;
54265;SDS011;40836;39.770;2.714;2022-09-27T17:06:51;5.97;;;1.20;;
54265;SDS011;40836;39.770;2.714;2022-09-27T17:09:17;6.97;;;1.10;;
54265;SDS011;40836;39.770;2.714;2022-09-27T17:11:43;5.53;;;1.30;;
54265;SDS011;40836;39.770;2.714;2022-09-27T17:14:12;5.80;;;1.02;;
54265;SDS011;40836;39.770;2.714;2022-09-27T17:16:44;8.38;;;1.27;;
54265;SDS011;40836;39.770;2.714;2022-09-27T17:19:11;6.15;;;1.10;;
54265;SDS011;40836;39.770;2.714;2022-09-27T17:21:37;7.20;;;1.23;;
54265;SDS011;40836;39.770;2.714;2022-09-27T17:24:04;4.20;;;1.30;;
54265;SDS011;40836;39.770;2.714;2022-09-27T17:26:30;7.85;;;1.40;;
54265;SDS011;40836;39.770;2.714;2022-09-27T17:28:56;7.32;;;1.30;;
54265;SDS011;40836;39.770;2.714;2022-09-27T17:31:24;6.20;;;1.50;;
54265;SDS011;40836;39.770;2.714;2022-09-27T17:33:51;8.68;;;1.50;;
54265;SDS011;40836;39.770;2.714;2022-09-27T17:36:20;4.82;;;1.73;;
54265;SDS011;40836;39.770;2.714;2022-09-27T17:38:48;4.82;;;1.55;;
54265;SDS011;40836;39.770;2.714;2022-09-27T17:41:16;12.77;;;1.75;;
54265;SDS011;40836;39.770;2.714;2022-09-27T17:43:44;7.15;;;1.48;;
54265;SDS011;40836;39.770;2.714;2022-09-27T17:46:16;9.65;;;1.60;;
54265;SDS011;40836;39.770;2.714;2022-09-27T17:48:43;11.02;;;1.70;;
54265;SDS011;40836;39.770;2.714;2022-09-27T17:51:29;11.70;;;2.35;;
54265;SDS011;40836;39.770;2.714;2022-09-27T17:53:55;7.97;;;1.90;;
54265;SDS011;40836;39.770;2.714;2022-09-27T17:56:21;6.72;;;1.83;;
54265;SDS011;40836;39.770;2.714;2022-09-27T17:58:48;5.20;;;1.65;;
54265;SDS011;40836;39.770;2.714;2022-09-27T18:01:15;7.45;;;1.30;;
54265;SDS011;40836;39.770;2.714;2022-09-27T18:03:42;8.57;;;1.27;;
54265;SDS011;40836;39.770;2.714;2022-09-27T18:06:09;6.20;;;1.30;;
54265;SDS011;40836;39.770;2.714;2022-09-27T18:08:36;9.50;;;1.67;;
54265;SDS011;40836;39.770;2.714;2022-09-27T18:11:02;7.28;;;1.65;;
54265;SDS011;40836;39.770;2.714;2022-09-27T18:13:33;12.48;;;1.83;;
54265;SDS011;40836;39.770;2.714;2022-09-27T18:16:14;9.80;;;1.92;;
54265;SDS011;40836;39.770;2.714;2022-09-27T18:18:43;8.75;;;2.10;;
54265;SDS011;40836;39.770;2.714;2022-09-27T18:21:16;9.13;;;2.00;;
54265;SDS011;40836;39.770;2.714;2022-09-27T18:26:15;7.38;;;1.90;;
54265;SDS011;40836;39.770;2.714;2022-09-27T18:28:41;5.45;;;2.30;;
54265;SDS011;40836;39.770;2.714;2022-09-27T18:31:07;7.32;;;2.08;;
54265;SDS011;40836;39.770;2.714;2022-09-27T18:33:37;8.45;;;2.10;;
54265;SDS011;40836;39.770;2.714;2022-09-27T18:36:11;8.30;;;2.53;;
54265;SDS011;40836;39.770;2.714;2022-09-27T18:38:38;6.60;;;2.20;;